sensor_id;sensor_type;location;lat;lon;timestamp;P1;durP1;ratioP1;P2;durP2;ratioP2
78072;SDS011;67281;48.770;11.440;2023-12-04T00:01:15;21.57;;;15.27;;
78072;SDS011;67281;48.770;11.440;2023-12-04T00:03:42;22.00;;;17.33;;
78072;SDS011;67281;48.770;11.440;2023-12-04T00:06:10;21.10;;;15.83;;
78072;SDS011;67281;48.770;11.440;2023-12-04T00:08:37;19.90;;;15.63;;
78072;SDS011;67281;48.770;11.440;2023-12-04T00:11:05;20.73;;;15.43;;
78072;SDS011;67281;48.770;11.440;2023-12-04T00:13:32;20.93;;;15.50;;
78072;SDS011;67281;48.770;11.440;2023-12-04T00:16:00;22.17;;;16.83;;
78072;SDS011;67281;48.770;11.440;2023-12-04T00:18:27;22.80;;;17.23;;
78072;SDS011;67281;48.770;11.440;2023-12-04T00:20:54;22.37;;;16.30;;
78072;SDS011;67281;48.770;11.440;2023-12-04T00:23:21;21.80;;;16.40;;
78072;SDS011;67281;48.770;11.440;2023-12-04T00:25:48;20.20;;;15.70;;
78072;SDS011;67281;48.770;11.440;2023-12-04T00:28:14;22.33;;;16.60;;
78072;SDS011;67281;48.770;11.440;2023-12-04T00:30:42;20.87;;;15.90;;
78072;SDS011;67281;48.770;11.440;2023-12-04T00:33:08;22.37;;;16.57;;
78072;SDS011;67281;48.770;11.440;2023-12-04T00:35:36;21.80;;;16.13;;
78072;SDS011;67281;48.770;11.440;2023-12-04T00:38:02;21.57;;;16.13;;
78072;SDS011;67281;48.770;11.440;2023-12-04T00:40:29;21.33;;;16.80;;
78072;SDS011;67281;48.770;11.440;2023-12-04T00:42:56;21.53;;;16.53;;
78072;SDS011;67281;48.770;11.440;2023-12-04T00:45:23;22.53;;;16.47;;
78072;SDS011;67281;48.770;11.440;2023-12-04T00:47:50;20.67;;;15.73;;
78072;SDS011;67281;48.770;11.440;2023-12-04T00:50:17;23.47;;;16.97;;
78072;SDS011;67281;48.770;11.440;2023-12-04T00:52:44;20.43;;;16.07;;
78072;SDS011;67281;48.770;11.440;2023-12-04T00:55:11;19.37;;;14.90;;
78072;SDS011;67281;48.770;11.440;2023-12-04T00:57:38;23.07;;;17.10;;
78072;SDS011;67281;48.770;11.440;2023-12-04T01:00:05;23.57;;;16.50;;
78072;SDS011;67281;48.770;11.440;2023-12-04T01:02:35;20.57;;;15.47;;
78072;SDS011;67281;48.770;11.440;2023-12-04T01:05:02;20.83;;;15.67;;
78072;SDS011;67281;48.770;11.440;2023-12-04T01:07:29;21.20;;;14.70;;
78072;SDS011;67281;48.770;11.440;2023-12-04T01:09:57;20.63;;;15.43;;
78072;SDS011;67281;48.770;11.440;2023-12-04T01:12:24;19.63;;;15.07;;
78072;SDS011;67281;48.770;11.440;2023-12-04T01:14:50;20.83;;;15.60;;
78072;SDS011;67281;48.770;11.440;2023-12-04T01:17:17;20.37;;;15.33;;
78072;SDS011;67281;48.770;11.440;2023-12-04T01:19:44;20.33;;;15.00;;
78072;SDS011;67281;48.770;11.440;2023-12-04T01:22:11;18.80;;;13.60;;
78072;SDS011;67281;48.770;11.440;2023-12-04T01:24:38;19.43;;;14.90;;
78072;SDS011;67281;48.770;11.440;2023-12-04T01:27:05;19.83;;;14.80;;
78072;SDS011;67281;48.770;11.440;2023-12-04T01:29:32;20.67;;;15.50;;
78072;SDS011;67281;48.770;11.440;2023-12-04T01:31:59;20.77;;;15.10;;
78072;SDS011;67281;48.770;11.440;2023-12-04T01:34:26;20.17;;;13.90;;
78072;SDS011;67281;48.770;11.440;2023-12-04T01:36:53;20.00;;;15.17;;
78072;SDS011;67281;48.770;11.440;2023-12-04T01:39:19;24.87;;;16.53;;
78072;SDS011;67281;48.770;11.440;2023-12-04T01:41:46;21.83;;;15.13;;
78072;SDS011;67281;48.770;11.440;2023-12-04T01:44:13;22.00;;;14.33;;
78072;SDS011;67281;48.770;11.440;2023-12-04T01:46:41;21.10;;;15.10;;
78072;SDS011;67281;48.770;11.440;2023-12-04T01:49:08;19.90;;;14.73;;
78072;SDS011;67281;48.770;11.440;2023-12-04T01:51:36;22.27;;;15.70;;
78072;SDS011;67281;48.770;11.440;2023-12-04T01:54:03;22.47;;;15.03;;
78072;SDS011;67281;48.770;11.440;2023-12-04T01:56:33;21.87;;;15.33;;
78072;SDS011;67281;48.770;11.440;2023-12-04T01:59:02;20.30;;;14.63;;
78072;SDS011;67281;48.770;11.440;2023-12-04T02:01:30;20.77;;;14.50;;
78072;SDS011;67281;48.770;11.440;2023-12-04T02:03:57;18.60;;;13.40;;
78072;SDS011;67281;48.770;11.440;2023-12-04T02:06:28;21.90;;;14.83;;
78072;SDS011;67281;48.770;11.440;2023-12-04T02:08:55;21.93;;;15.23;;
78072;SDS011;67281;48.770;11.440;2023-12-04T02:11:22;21.30;;;14.80;;
78072;SDS011;67281;48.770;11.440;2023-12-04T02:13:49;21.10;;;15.10;;
78072;SDS011;67281;48.770;11.440;2023-12-04T02:16:19;21.43;;;14.70;;
78072;SDS011;67281;48.770;11.440;2023-12-04T02:18:50;19.27;;;14.13;;
78072;SDS011;67281;48.770;11.440;2023-12-04T02:21:17;18.53;;;13.23;;
78072;SDS011;67281;48.770;11.440;2023-12-04T02:23:48;19.63;;;14.00;;
78072;SDS011;67281;48.770;11.440;2023-12-04T02:26:17;19.77;;;13.77;;
78072;SDS011;67281;48.770;11.440;2023-12-04T02:29:01;20.33;;;13.87;;
78072;SDS011;67281;48.770;11.440;2023-12-04T02:31:34;20.07;;;14.03;;
78072;SDS011;67281;48.770;11.440;2023-12-04T02:34:04;20.17;;;14.10;;
78072;SDS011;67281;48.770;11.440;2023-12-04T02:36:33;17.27;;;12.80;;
78072;SDS011;67281;48.770;11.440;2023-12-04T02:39:02;17.03;;;12.70;;
78072;SDS011;67281;48.770;11.440;2023-12-04T02:41:29;16.93;;;12.83;;
78072;SDS011;67281;48.770;11.440;2023-12-04T02:43:56;16.17;;;13.00;;
78072;SDS011;67281;48.770;11.440;2023-12-04T02:46:23;17.00;;;12.60;;
78072;SDS011;67281;48.770;11.440;2023-12-04T02:48:50;15.53;;;12.03;;
78072;SDS011;67281;48.770;11.440;2023-12-04T02:51:16;17.43;;;12.37;;
78072;SDS011;67281;48.770;11.440;2023-12-04T02:53:44;18.47;;;12.87;;
78072;SDS011;67281;48.770;11.440;2023-12-04T02:56:10;15.87;;;12.50;;
78072;SDS011;67281;48.770;11.440;2023-12-04T02:58:37;17.17;;;11.70;;
78072;SDS011;67281;48.770;11.440;2023-12-04T03:01:05;16.40;;;12.03;;
78072;SDS011;67281;48.770;11.440;2023-12-04T03:03:32;16.00;;;12.07;;
78072;SDS011;67281;48.770;11.440;2023-12-04T03:06:00;15.27;;;11.83;;
78072;SDS011;67281;48.770;11.440;2023-12-04T03:08:27;15.10;;;11.43;;
78072;SDS011;67281;48.770;11.440;2023-12-04T03:10:54;16.87;;;11.83;;
78072;SDS011;67281;48.770;11.440;2023-12-04T03:13:20;16.10;;;12.17;;
78072;SDS011;67281;48.770;11.440;2023-12-04T03:15:47;16.40;;;12.13;;
78072;SDS011;67281;48.770;11.440;2023-12-04T03:18:14;15.37;;;11.33;;
78072;SDS011;67281;48.770;11.440;2023-12-04T03:20:41;15.13;;;11.00;;
78072;SDS011;67281;48.770;11.440;2023-12-04T03:23:08;16.77;;;11.50;;
78072;SDS011;67281;48.770;11.440;2023-12-04T03:25:35;16.40;;;12.20;;
78072;SDS011;67281;48.770;11.440;2023-12-04T03:28:02;17.50;;;11.73;;
78072;SDS011;67281;48.770;11.440;2023-12-04T03:30:29;17.60;;;12.27;;
78072;SDS011;67281;48.770;11.440;2023-12-04T03:32:56;16.17;;;12.07;;
78072;SDS011;67281;48.770;11.440;2023-12-04T03:35:23;16.80;;;12.57;;
78072;SDS011;67281;48.770;11.440;2023-12-04T03:37:50;20.60;;;12.23;;
78072;SDS011;67281;48.770;11.440;2023-12-04T03:40:17;16.33;;;12.00;;
78072;SDS011;67281;48.770;11.440;2023-12-04T03:42:44;16.47;;;11.83;;
78072;SDS011;67281;48.770;11.440;2023-12-04T03:45:11;16.97;;;12.60;;
78072;SDS011;67281;48.770;11.440;2023-12-04T03:47:38;16.90;;;12.03;;
78072;SDS011;67281;48.770;11.440;2023-12-04T03:50:05;15.40;;;11.10;;
78072;SDS011;67281;48.770;11.440;2023-12-04T03:52:33;15.03;;;10.90;;
78072;SDS011;67281;48.770;11.440;2023-12-04T03:54:59;15.37;;;11.13;;
78072;SDS011;67281;48.770;11.440;2023-12-04T03:57:26;16.57;;;11.30;;
78072;SDS011;67281;48.770;11.440;2023-12-04T03:59:53;16.13;;;11.47;;
78072;SDS011;67281;48.770;11.440;2023-12-04T04:02:20;15.70;;;11.33;;
78072;SDS011;67281;48.770;11.440;2023-12-04T04:04:47;15.77;;;11.03;;
78072;SDS011;67281;48.770;11.440;2023-12-04T04:07:15;18.60;;;11.70;;
78072;SDS011;67281;48.770;11.440;2023-12-04T04:09:43;15.50;;;11.53;;
78072;SDS011;67281;48.770;11.440;2023-12-04T04:12:10;16.63;;;11.80;;
78072;SDS011;67281;48.770;11.440;2023-12-04T04:14:37;16.10;;;11.27;;
78072;SDS011;67281;48.770;11.440;2023-12-04T04:17:04;14.80;;;10.83;;
78072;SDS011;67281;48.770;11.440;2023-12-04T04:19:32;15.77;;;10.47;;
78072;SDS011;67281;48.770;11.440;2023-12-04T04:21:59;16.07;;;11.33;;
78072;SDS011;67281;48.770;11.440;2023-12-04T04:24:26;14.83;;;10.20;;
78072;SDS011;67281;48.770;11.440;2023-12-04T04:26:53;13.73;;;9.87;;
78072;SDS011;67281;48.770;11.440;2023-12-04T04:29:19;15.73;;;11.20;;
78072;SDS011;67281;48.770;11.440;2023-12-04T04:31:46;15.10;;;10.70;;
78072;SDS011;67281;48.770;11.440;2023-12-04T04:34:14;15.67;;;10.90;;
78072;SDS011;67281;48.770;11.440;2023-12-04T04:36:42;16.30;;;11.17;;
78072;SDS011;67281;48.770;11.440;2023-12-04T04:39:11;15.67;;;10.93;;
78072;SDS011;67281;48.770;11.440;2023-12-04T04:41:40;14.83;;;10.80;;
78072;SDS011;67281;48.770;11.440;2023-12-04T04:44:07;15.13;;;10.20;;
78072;SDS011;67281;48.770;11.440;2023-12-04T04:46:34;14.03;;;10.63;;
78072;SDS011;67281;48.770;11.440;2023-12-04T04:49:00;15.77;;;10.77;;
78072;SDS011;67281;48.770;11.440;2023-12-04T04:51:28;15.27;;;10.77;;
78072;SDS011;67281;48.770;11.440;2023-12-04T04:53:58;15.20;;;10.90;;
78072;SDS011;67281;48.770;11.440;2023-12-04T04:56:25;13.43;;;10.10;;
78072;SDS011;67281;48.770;11.440;2023-12-04T04:58:53;14.70;;;10.23;;
78072;SDS011;67281;48.770;11.440;2023-12-04T05:01:20;15.53;;;10.47;;
78072;SDS011;67281;48.770;11.440;2023-12-04T05:03:46;13.27;;;10.07;;
78072;SDS011;67281;48.770;11.440;2023-12-04T05:06:14;14.60;;;11.20;;
78072;SDS011;67281;48.770;11.440;2023-12-04T05:08:41;18.07;;;11.60;;
78072;SDS011;67281;48.770;11.440;2023-12-04T05:11:08;15.53;;;10.60;;
78072;SDS011;67281;48.770;11.440;2023-12-04T05:13:35;16.77;;;12.57;;
78072;SDS011;67281;48.770;11.440;2023-12-04T05:16:01;16.00;;;11.23;;
78072;SDS011;67281;48.770;11.440;2023-12-04T05:18:28;15.30;;;11.00;;
78072;SDS011;67281;48.770;11.440;2023-12-04T05:20:55;19.43;;;10.90;;
78072;SDS011;67281;48.770;11.440;2023-12-04T05:23:22;16.87;;;11.20;;
78072;SDS011;67281;48.770;11.440;2023-12-04T05:25:49;18.57;;;12.60;;
78072;SDS011;67281;48.770;11.440;2023-12-04T05:28:16;18.67;;;12.17;;
78072;SDS011;67281;48.770;11.440;2023-12-04T05:30:43;14.73;;;10.60;;
78072;SDS011;67281;48.770;11.440;2023-12-04T05:33:11;18.83;;;11.63;;
78072;SDS011;67281;48.770;11.440;2023-12-04T05:35:41;15.27;;;10.77;;
78072;SDS011;67281;48.770;11.440;2023-12-04T05:38:12;14.57;;;11.17;;
78072;SDS011;67281;48.770;11.440;2023-12-04T05:40:38;16.10;;;11.60;;
78072;SDS011;67281;48.770;11.440;2023-12-04T05:43:05;16.17;;;11.70;;
78072;SDS011;67281;48.770;11.440;2023-12-04T05:45:32;18.80;;;11.90;;
78072;SDS011;67281;48.770;11.440;2023-12-04T05:47:59;16.77;;;11.60;;
78072;SDS011;67281;48.770;11.440;2023-12-04T05:50:26;17.03;;;11.47;;
78072;SDS011;67281;48.770;11.440;2023-12-04T05:52:53;15.70;;;10.60;;
78072;SDS011;67281;48.770;11.440;2023-12-04T05:55:20;15.53;;;11.10;;
78072;SDS011;67281;48.770;11.440;2023-12-04T05:57:47;16.90;;;11.40;;
78072;SDS011;67281;48.770;11.440;2023-12-04T06:00:14;15.90;;;11.23;;
78072;SDS011;67281;48.770;11.440;2023-12-04T06:02:42;16.40;;;11.20;;
78072;SDS011;67281;48.770;11.440;2023-12-04T06:05:10;16.20;;;11.43;;
78072;SDS011;67281;48.770;11.440;2023-12-04T06:07:37;15.07;;;11.00;;
78072;SDS011;67281;48.770;11.440;2023-12-04T06:10:05;16.17;;;11.27;;
78072;SDS011;67281;48.770;11.440;2023-12-04T06:12:32;16.67;;;10.20;;
78072;SDS011;67281;48.770;11.440;2023-12-04T06:14:59;14.90;;;10.23;;
78072;SDS011;67281;48.770;11.440;2023-12-04T06:17:27;16.23;;;10.53;;
78072;SDS011;67281;48.770;11.440;2023-12-04T06:19:54;16.00;;;11.60;;
78072;SDS011;67281;48.770;11.440;2023-12-04T06:22:21;15.53;;;10.93;;
78072;SDS011;67281;48.770;11.440;2023-12-04T06:24:48;15.67;;;10.67;;
78072;SDS011;67281;48.770;11.440;2023-12-04T06:27:17;15.23;;;10.83;;
78072;SDS011;67281;48.770;11.440;2023-12-04T06:29:48;14.97;;;11.00;;
78072;SDS011;67281;48.770;11.440;2023-12-04T06:32:19;18.47;;;10.80;;
78072;SDS011;67281;48.770;11.440;2023-12-04T06:34:46;15.87;;;10.57;;
78072;SDS011;67281;48.770;11.440;2023-12-04T06:37:15;13.93;;;10.40;;
78072;SDS011;67281;48.770;11.440;2023-12-04T06:39:42;13.77;;;9.30;;
78072;SDS011;67281;48.770;11.440;2023-12-04T06:42:12;14.20;;;10.30;;
78072;SDS011;67281;48.770;11.440;2023-12-04T06:44:39;16.33;;;10.47;;
78072;SDS011;67281;48.770;11.440;2023-12-04T06:47:07;14.13;;;10.53;;
78072;SDS011;67281;48.770;11.440;2023-12-04T06:49:35;15.77;;;10.67;;
78072;SDS011;67281;48.770;11.440;2023-12-04T06:52:02;16.37;;;10.53;;
78072;SDS011;67281;48.770;11.440;2023-12-04T06:54:30;15.43;;;9.97;;
78072;SDS011;67281;48.770;11.440;2023-12-04T06:56:57;13.37;;;9.43;;
78072;SDS011;67281;48.770;11.440;2023-12-04T06:59:24;13.73;;;9.10;;
78072;SDS011;67281;48.770;11.440;2023-12-04T07:01:51;16.20;;;9.80;;
78072;SDS011;67281;48.770;11.440;2023-12-04T07:04:18;13.83;;;9.37;;
78072;SDS011;67281;48.770;11.440;2023-12-04T07:06:48;13.57;;;9.00;;
78072;SDS011;67281;48.770;11.440;2023-12-04T07:09:15;15.63;;;8.97;;
78072;SDS011;67281;48.770;11.440;2023-12-04T07:11:46;14.13;;;9.50;;
78072;SDS011;67281;48.770;11.440;2023-12-04T07:14:14;15.27;;;9.87;;
78072;SDS011;67281;48.770;11.440;2023-12-04T07:16:41;12.87;;;8.77;;
78072;SDS011;67281;48.770;11.440;2023-12-04T07:19:09;14.73;;;9.10;;
78072;SDS011;67281;48.770;11.440;2023-12-04T07:21:37;13.20;;;8.93;;
78072;SDS011;67281;48.770;11.440;2023-12-04T07:24:06;13.07;;;8.77;;
78072;SDS011;67281;48.770;11.440;2023-12-04T07:26:36;14.23;;;9.57;;
78072;SDS011;67281;48.770;11.440;2023-12-04T07:29:03;14.70;;;9.67;;
78072;SDS011;67281;48.770;11.440;2023-12-04T07:31:30;12.03;;;8.80;;
78072;SDS011;67281;48.770;11.440;2023-12-04T07:33:57;13.43;;;8.73;;
78072;SDS011;67281;48.770;11.440;2023-12-04T07:36:27;13.93;;;8.07;;
78072;SDS011;67281;48.770;11.440;2023-12-04T07:38:56;12.40;;;8.30;;
78072;SDS011;67281;48.770;11.440;2023-12-04T07:41:22;15.27;;;8.47;;
78072;SDS011;67281;48.770;11.440;2023-12-04T07:43:49;13.73;;;8.30;;
78072;SDS011;67281;48.770;11.440;2023-12-04T07:46:16;13.23;;;8.10;;
78072;SDS011;67281;48.770;11.440;2023-12-04T07:48:43;12.53;;;8.60;;
78072;SDS011;67281;48.770;11.440;2023-12-04T07:51:11;15.23;;;9.30;;
78072;SDS011;67281;48.770;11.440;2023-12-04T07:53:38;13.47;;;9.13;;
78072;SDS011;67281;48.770;11.440;2023-12-04T07:56:05;12.60;;;8.87;;
78072;SDS011;67281;48.770;11.440;2023-12-04T07:58:32;16.80;;;10.13;;
78072;SDS011;67281;48.770;11.440;2023-12-04T08:00:59;13.37;;;8.80;;
78072;SDS011;67281;48.770;11.440;2023-12-04T08:03:26;17.23;;;10.20;;
78072;SDS011;67281;48.770;11.440;2023-12-04T08:05:54;16.63;;;9.80;;
78072;SDS011;67281;48.770;11.440;2023-12-04T08:08:21;14.40;;;9.30;;
78072;SDS011;67281;48.770;11.440;2023-12-04T08:10:48;13.93;;;9.27;;
78072;SDS011;67281;48.770;11.440;2023-12-04T08:13:15;15.70;;;10.40;;
78072;SDS011;67281;48.770;11.440;2023-12-04T08:15:43;17.43;;;10.07;;
78072;SDS011;67281;48.770;11.440;2023-12-04T08:18:11;14.17;;;9.47;;
78072;SDS011;67281;48.770;11.440;2023-12-04T08:20:38;13.00;;;9.07;;
78072;SDS011;67281;48.770;11.440;2023-12-04T08:23:07;15.77;;;8.87;;
78072;SDS011;67281;48.770;11.440;2023-12-04T08:25:35;16.57;;;8.97;;
78072;SDS011;67281;48.770;11.440;2023-12-04T08:28:04;12.63;;;9.47;;
78072;SDS011;67281;48.770;11.440;2023-12-04T08:30:32;12.53;;;8.50;;
78072;SDS011;67281;48.770;11.440;2023-12-04T08:32:59;12.67;;;9.00;;
78072;SDS011;67281;48.770;11.440;2023-12-04T08:35:26;13.33;;;9.53;;
78072;SDS011;67281;48.770;11.440;2023-12-04T08:37:53;12.00;;;8.53;;
78072;SDS011;67281;48.770;11.440;2023-12-04T08:40:21;13.73;;;8.70;;
78072;SDS011;67281;48.770;11.440;2023-12-04T08:42:48;14.10;;;9.27;;
78072;SDS011;67281;48.770;11.440;2023-12-04T08:45:16;12.63;;;8.37;;
78072;SDS011;67281;48.770;11.440;2023-12-04T08:47:45;13.20;;;8.23;;
78072;SDS011;67281;48.770;11.440;2023-12-04T08:50:12;11.97;;;8.43;;
78072;SDS011;67281;48.770;11.440;2023-12-04T08:52:39;16.03;;;8.77;;
78072;SDS011;67281;48.770;11.440;2023-12-04T08:55:09;13.83;;;9.27;;
78072;SDS011;67281;48.770;11.440;2023-12-04T08:57:36;17.37;;;8.93;;
78072;SDS011;67281;48.770;11.440;2023-12-04T09:00:03;14.47;;;9.07;;
78072;SDS011;67281;48.770;11.440;2023-12-04T09:02:31;11.80;;;8.40;;
78072;SDS011;67281;48.770;11.440;2023-12-04T09:04:58;13.20;;;9.37;;
78072;SDS011;67281;48.770;11.440;2023-12-04T09:07:29;15.00;;;9.37;;
78072;SDS011;67281;48.770;11.440;2023-12-04T09:09:59;14.87;;;10.37;;
78072;SDS011;67281;48.770;11.440;2023-12-04T09:12:35;14.47;;;9.50;;
78072;SDS011;67281;48.770;11.440;2023-12-04T09:15:05;14.27;;;9.20;;
78072;SDS011;67281;48.770;11.440;2023-12-04T09:17:35;14.30;;;9.83;;
78072;SDS011;67281;48.770;11.440;2023-12-04T09:20:05;14.50;;;9.40;;
78072;SDS011;67281;48.770;11.440;2023-12-04T09:22:32;15.77;;;11.47;;
78072;SDS011;67281;48.770;11.440;2023-12-04T09:25:15;16.40;;;11.20;;
78072;SDS011;67281;48.770;11.440;2023-12-04T09:27:42;18.97;;;11.00;;
78072;SDS011;67281;48.770;11.440;2023-12-04T09:30:09;14.17;;;10.20;;
78072;SDS011;67281;48.770;11.440;2023-12-04T09:32:37;15.00;;;10.60;;
78072;SDS011;67281;48.770;11.440;2023-12-04T09:35:05;17.40;;;11.60;;
78072;SDS011;67281;48.770;11.440;2023-12-04T09:37:32;15.67;;;11.00;;
78072;SDS011;67281;48.770;11.440;2023-12-04T09:40:02;15.13;;;11.00;;
78072;SDS011;67281;48.770;11.440;2023-12-04T09:42:30;14.80;;;10.37;;
78072;SDS011;67281;48.770;11.440;2023-12-04T09:44:58;16.33;;;10.37;;
78072;SDS011;67281;48.770;11.440;2023-12-04T09:47:25;17.33;;;10.60;;
78072;SDS011;67281;48.770;11.440;2023-12-04T09:49:53;13.87;;;10.60;;
78072;SDS011;67281;48.770;11.440;2023-12-04T09:52:24;15.87;;;10.73;;
78072;SDS011;67281;48.770;11.440;2023-12-04T09:54:54;18.33;;;10.57;;
78072;SDS011;67281;48.770;11.440;2023-12-04T09:57:21;14.57;;;10.97;;
78072;SDS011;67281;48.770;11.440;2023-12-04T09:59:51;16.03;;;11.10;;
78072;SDS011;67281;48.770;11.440;2023-12-04T10:02:24;17.27;;;10.97;;
78072;SDS011;67281;48.770;11.440;2023-12-04T10:04:52;14.67;;;11.17;;
78072;SDS011;67281;48.770;11.440;2023-12-04T10:07:20;14.13;;;9.60;;
78072;SDS011;67281;48.770;11.440;2023-12-04T10:09:46;16.87;;;11.00;;
78072;SDS011;67281;48.770;11.440;2023-12-04T10:12:13;15.60;;;10.97;;
78072;SDS011;67281;48.770;11.440;2023-12-04T10:15:08;17.57;;;10.83;;
78072;SDS011;67281;48.770;11.440;2023-12-04T10:17:37;18.43;;;11.83;;
78072;SDS011;67281;48.770;11.440;2023-12-04T10:20:10;16.70;;;11.77;;
78072;SDS011;67281;48.770;11.440;2023-12-04T10:22:39;15.20;;;10.77;;
78072;SDS011;67281;48.770;11.440;2023-12-04T10:25:18;14.63;;;11.00;;
78072;SDS011;67281;48.770;11.440;2023-12-04T10:27:51;15.00;;;11.13;;
78072;SDS011;67281;48.770;11.440;2023-12-04T10:30:29;15.47;;;11.13;;
78072;SDS011;67281;48.770;11.440;2023-12-04T10:32:58;15.87;;;12.37;;
78072;SDS011;67281;48.770;11.440;2023-12-04T10:35:28;18.13;;;11.97;;
78072;SDS011;67281;48.770;11.440;2023-12-04T10:37:59;15.90;;;11.80;;
78072;SDS011;67281;48.770;11.440;2023-12-04T10:40:27;15.27;;;11.13;;
78072;SDS011;67281;48.770;11.440;2023-12-04T10:45:51;15.63;;;11.43;;
78072;SDS011;67281;48.770;11.440;2023-12-04T10:48:19;14.20;;;10.03;;
78072;SDS011;67281;48.770;11.440;2023-12-04T10:50:47;18.23;;;11.60;;
78072;SDS011;67281;48.770;11.440;2023-12-04T10:53:16;15.03;;;10.33;;
78072;SDS011;67281;48.770;11.440;2023-12-04T10:55:43;17.53;;;12.17;;
78072;SDS011;67281;48.770;11.440;2023-12-04T10:58:12;16.60;;;12.40;;
78072;SDS011;67281;48.770;11.440;2023-12-04T11:00:45;15.67;;;11.57;;
78072;SDS011;67281;48.770;11.440;2023-12-04T11:03:14;17.77;;;12.00;;
78072;SDS011;67281;48.770;11.440;2023-12-04T11:05:55;17.73;;;12.83;;
78072;SDS011;67281;48.770;11.440;2023-12-04T11:08:24;15.70;;;11.40;;
78072;SDS011;67281;48.770;11.440;2023-12-04T11:10:58;15.80;;;12.07;;
78072;SDS011;67281;48.770;11.440;2023-12-04T11:13:30;15.80;;;11.73;;
78072;SDS011;67281;48.770;11.440;2023-12-04T11:16:03;16.00;;;12.03;;
78072;SDS011;67281;48.770;11.440;2023-12-04T11:18:58;16.27;;;11.20;;
78072;SDS011;67281;48.770;11.440;2023-12-04T11:21:31;16.27;;;11.23;;
78072;SDS011;67281;48.770;11.440;2023-12-04T11:23:59;18.10;;;12.17;;
78072;SDS011;67281;48.770;11.440;2023-12-04T11:26:27;16.67;;;12.53;;
78072;SDS011;67281;48.770;11.440;2023-12-04T11:28:55;16.70;;;11.60;;
78072;SDS011;67281;48.770;11.440;2023-12-04T11:31:23;18.13;;;11.70;;
78072;SDS011;67281;48.770;11.440;2023-12-04T11:33:51;15.50;;;11.80;;
78072;SDS011;67281;48.770;11.440;2023-12-04T11:36:18;14.63;;;11.00;;
78072;SDS011;67281;48.770;11.440;2023-12-04T11:38:46;17.13;;;12.17;;
78072;SDS011;67281;48.770;11.440;2023-12-04T11:41:17;15.50;;;10.70;;
78072;SDS011;67281;48.770;11.440;2023-12-04T11:43:51;15.83;;;11.70;;
78072;SDS011;67281;48.770;11.440;2023-12-04T11:46:22;17.07;;;12.73;;
78072;SDS011;67281;48.770;11.440;2023-12-04T11:51:52;21.60;;;19.40;;
78072;SDS011;67281;48.770;11.440;2023-12-04T11:54:20;17.77;;;14.63;;
78072;SDS011;67281;48.770;11.440;2023-12-04T11:59:28;19.20;;;14.23;;
78072;SDS011;67281;48.770;11.440;2023-12-04T12:01:55;18.33;;;13.13;;
78072;SDS011;67281;48.770;11.440;2023-12-04T12:04:26;19.00;;;12.40;;
78072;SDS011;67281;48.770;11.440;2023-12-04T12:06:57;19.10;;;13.67;;
78072;SDS011;67281;48.770;11.440;2023-12-04T12:09:37;15.10;;;11.87;;
78072;SDS011;67281;48.770;11.440;2023-12-04T12:12:05;18.93;;;13.03;;
78072;SDS011;67281;48.770;11.440;2023-12-04T12:14:32;18.17;;;13.37;;
78072;SDS011;67281;48.770;11.440;2023-12-04T12:16:59;16.63;;;12.37;;
78072;SDS011;67281;48.770;11.440;2023-12-04T12:19:33;18.77;;;12.83;;
78072;SDS011;67281;48.770;11.440;2023-12-04T12:22:00;17.80;;;12.43;;
78072;SDS011;67281;48.770;11.440;2023-12-04T12:24:29;19.00;;;12.60;;
78072;SDS011;67281;48.770;11.440;2023-12-04T12:26:56;17.10;;;11.90;;
78072;SDS011;67281;48.770;11.440;2023-12-04T12:29:24;25.27;;;14.10;;
78072;SDS011;67281;48.770;11.440;2023-12-04T12:31:51;17.90;;;12.63;;
78072;SDS011;67281;48.770;11.440;2023-12-04T12:34:18;18.23;;;13.40;;
78072;SDS011;67281;48.770;11.440;2023-12-04T12:36:45;19.20;;;12.87;;
78072;SDS011;67281;48.770;11.440;2023-12-04T12:39:13;17.60;;;13.07;;
78072;SDS011;67281;48.770;11.440;2023-12-04T12:41:49;19.70;;;14.57;;
78072;SDS011;67281;48.770;11.440;2023-12-04T12:44:17;19.47;;;14.63;;
78072;SDS011;67281;48.770;11.440;2023-12-04T12:46:47;18.87;;;14.07;;
78072;SDS011;67281;48.770;11.440;2023-12-04T12:49:19;19.83;;;13.57;;
78072;SDS011;67281;48.770;11.440;2023-12-04T12:51:50;15.70;;;11.07;;
78072;SDS011;67281;48.770;11.440;2023-12-04T12:54:17;15.10;;;11.13;;
78072;SDS011;67281;48.770;11.440;2023-12-04T12:56:50;18.27;;;13.17;;
78072;SDS011;67281;48.770;11.440;2023-12-04T12:59:17;18.00;;;12.73;;
78072;SDS011;67281;48.770;11.440;2023-12-04T13:01:44;19.77;;;13.40;;
78072;SDS011;67281;48.770;11.440;2023-12-04T13:04:13;17.97;;;13.30;;
78072;SDS011;67281;48.770;11.440;2023-12-04T13:06:44;14.77;;;11.27;;
78072;SDS011;67281;48.770;11.440;2023-12-04T13:09:11;15.93;;;12.20;;
78072;SDS011;67281;48.770;11.440;2023-12-04T13:11:51;19.40;;;12.20;;
78072;SDS011;67281;48.770;11.440;2023-12-04T13:14:18;17.90;;;13.20;;
78072;SDS011;67281;48.770;11.440;2023-12-04T13:16:45;16.53;;;11.50;;
78072;SDS011;67281;48.770;11.440;2023-12-04T13:19:13;16.27;;;12.10;;
78072;SDS011;67281;48.770;11.440;2023-12-04T13:21:39;16.73;;;11.87;;
78072;SDS011;67281;48.770;11.440;2023-12-04T13:24:06;15.67;;;12.03;;
78072;SDS011;67281;48.770;11.440;2023-12-04T13:26:35;17.70;;;12.30;;
78072;SDS011;67281;48.770;11.440;2023-12-04T13:29:02;17.17;;;12.97;;
78072;SDS011;67281;48.770;11.440;2023-12-04T13:31:29;17.33;;;12.07;;
78072;SDS011;67281;48.770;11.440;2023-12-04T13:33:58;17.20;;;12.77;;
78072;SDS011;67281;48.770;11.440;2023-12-04T13:36:25;17.20;;;12.50;;
78072;SDS011;67281;48.770;11.440;2023-12-04T13:38:54;16.97;;;12.73;;
78072;SDS011;67281;48.770;11.440;2023-12-04T13:41:20;15.17;;;11.73;;
78072;SDS011;67281;48.770;11.440;2023-12-04T13:44:06;16.50;;;12.37;;
78072;SDS011;67281;48.770;11.440;2023-12-04T13:46:34;16.83;;;12.17;;
78072;SDS011;67281;48.770;11.440;2023-12-04T13:49:01;13.83;;;8.80;;
78072;SDS011;67281;48.770;11.440;2023-12-04T13:51:29;15.57;;;11.77;;
78072;SDS011;67281;48.770;11.440;2023-12-04T13:53:56;14.90;;;11.77;;
78072;SDS011;67281;48.770;11.440;2023-12-04T13:56:30;17.33;;;12.73;;
78072;SDS011;67281;48.770;11.440;2023-12-04T13:59:11;17.70;;;12.97;;
78072;SDS011;67281;48.770;11.440;2023-12-04T14:01:48;16.03;;;12.13;;
78072;SDS011;67281;48.770;11.440;2023-12-04T14:04:22;18.17;;;12.27;;
78072;SDS011;67281;48.770;11.440;2023-12-04T14:06:51;16.57;;;12.83;;
78072;SDS011;67281;48.770;11.440;2023-12-04T14:09:19;18.80;;;13.60;;
78072;SDS011;67281;48.770;11.440;2023-12-04T14:11:47;17.30;;;12.90;;
78072;SDS011;67281;48.770;11.440;2023-12-04T14:14:14;18.50;;;14.10;;
78072;SDS011;67281;48.770;11.440;2023-12-04T14:16:41;18.63;;;13.33;;
78072;SDS011;67281;48.770;11.440;2023-12-04T14:19:09;18.17;;;13.60;;
78072;SDS011;67281;48.770;11.440;2023-12-04T14:21:36;18.50;;;13.30;;
78072;SDS011;67281;48.770;11.440;2023-12-04T14:24:03;18.33;;;12.80;;
78072;SDS011;67281;48.770;11.440;2023-12-04T14:26:30;17.77;;;12.97;;